Time;durP1;ratioP1;P1;durP2;ratioP2;P2;SDS_P1;SDS_P2;PMS_P1;PMS_P2;Temp;Humidity;BMP_temperature;BMP_pressure;BME280_temperature;BME280_humidity;BME280_pressure;Samples;Min_cycle;Max_cycle;Signal;HPM_P1;HPM_P2
2023/04/22 04:05:55;;;;;;;3.03;2.72;;;10.70;99.90;;;;;;5136572;23;20247;-62
2023/04/22 04:08:20;;;;;;;3.37;3.17;;;10.60;99.90;;;;;;4980526;28;20185;-63
2023/04/22 04:10:46;;;;;;;4.13;3.53;;;10.60;99.90;;;;;;4980800;28;20234;-62
2023/04/22 04:13:12;;;;;;;2.73;2.53;;;10.50;99.90;;;;;;4980267;28;20423;-61
2023/04/22 04:15:37;;;;;;;2.97;2.60;;;10.50;99.90;;;;;;4980492;28;20273;-63
2023/04/22 04:18:03;;;;;;;2.93;2.73;;;10.50;99.90;;;;;;4980613;28;20219;-62
2023/04/22 04:20:28;;;;;;;3.37;3.07;;;10.40;99.90;;;;;;4980860;28;20238;-63
2023/04/22 04:22:55;;;;;;;3.57;3.27;;;10.40;99.90;;;;;;4975562;28;20245;-62
2023/04/22 04:25:21;;;;;;;6.07;3.13;;;10.40;99.90;;;;;;4961218;28;20558;-63
2023/04/22 04:27:46;;;;;;;2.92;2.60;;;10.40;99.90;;;;;;4961491;28;20276;-63
2023/04/22 04:30:13;;;;;;;3.10;2.90;;;10.40;99.90;;;;;;4961225;28;20260;-63
2023/04/22 04:32:39;;;;;;;2.78;2.60;;;10.40;99.90;;;;;;4958844;28;20542;-63
2023/04/22 04:35:05;;;;;;;2.40;2.20;;;10.40;99.90;;;;;;4956494;28;20280;-63
2023/04/22 04:37:31;;;;;;;3.63;2.70;;;10.40;99.90;;;;;;4957997;29;20543;-63
2023/04/22 04:39:58;;;;;;;2.23;2.13;;;10.40;99.90;;;;;;4958113;29;20185;-65
2023/04/22 04:42:24;;;;;;;4.70;3.15;;;10.50;99.90;;;;;;4958046;29;20583;-64
2023/04/22 04:44:52;;;;;;;2.75;2.50;;;10.50;99.90;;;;;;4957489;28;20189;-63
2023/04/22 04:47:18;;;;;;;2.45;2.25;;;10.60;99.90;;;;;;4958015;29;20547;-63
2023/04/22 04:49:45;;;;;;;2.38;2.03;;;10.50;99.90;;;;;;4957587;29;20256;-63
2023/04/22 04:52:10;;;;;;;3.30;2.60;;;10.50;99.90;;;;;;4957735;29;20174;-63
2023/04/22 04:54:36;;;;;;;4.50;2.63;;;10.50;99.90;;;;;;4957366;28;20200;-63
2023/04/22 04:57:04;;;;;;;5.40;3.03;;;10.50;99.90;;;;;;4957384;29;20304;-63
2023/04/22 04:59:30;;;;;;;2.55;2.42;;;10.50;99.90;;;;;;4962668;28;20404;-62
2023/04/22 05:01:56;;;;;;;2.73;2.57;;;10.50;99.90;;;;;;4977016;28;20239;-63
2023/04/22 05:04:21;;;;;;;2.20;1.90;;;10.60;99.90;;;;;;4976391;28;20242;-63
2023/04/22 05:06:47;;;;;;;2.63;2.43;;;10.60;99.90;;;;;;4976585;28;20279;-62
2023/04/22 05:09:13;;;;;;;2.77;2.57;;;10.60;99.90;;;;;;4976749;28;20173;-63
2023/04/22 05:11:39;;;;;;;4.30;2.67;;;10.60;99.90;;;;;;4976655;28;20232;-63
2023/04/22 05:14:05;;;;;;;3.00;2.77;;;10.70;99.90;;;;;;4976118;28;20469;-61
2023/04/22 05:16:31;;;;;;;4.28;2.75;;;10.70;99.90;;;;;;4976500;28;20258;-64
2023/04/22 05:18:56;;;;;;;2.60;2.40;;;10.70;99.90;;;;;;4958916;28;20173;-63
2023/04/22 05:21:22;;;;;;;4.40;2.50;;;10.70;99.90;;;;;;4976289;28;20408;-63
2023/04/22 05:23:48;;;;;;;2.87;2.67;;;10.70;99.90;;;;;;4976150;28;20599;-63
2023/04/22 05:26:13;;;;;;;3.83;3.17;;;10.80;99.90;;;;;;4976550;28;20211;-63
2023/04/22 05:28:39;;;;;;;3.83;3.47;;;10.80;99.90;;;;;;4976342;28;20176;-62
2023/04/22 05:31:05;;;;;;;2.77;2.60;;;10.80;99.90;;;;;;4976410;28;20176;-62
2023/04/22 05:33:31;;;;;;;2.63;2.40;;;10.80;99.90;;;;;;4975763;28;20186;-62
2023/04/22 05:35:56;;;;;;;2.27;1.90;;;10.80;99.90;;;;;;4975917;28;20196;-63
2023/04/22 05:38:22;;;;;;;2.10;2.00;;;10.90;99.90;;;;;;4976220;28;20180;-63
2023/04/22 05:40:48;;;;;;;2.47;2.27;;;10.90;99.90;;;;;;4976622;28;20170;-64
2023/04/22 05:43:14;;;;;;;2.10;2.00;;;10.90;99.90;;;;;;4975518;28;20228;-63
2023/04/22 05:45:39;;;;;;;2.93;2.77;;;11.00;99.90;;;;;;4975820;28;20199;-63
2023/04/22 05:48:05;;;;;;;2.47;2.23;;;11.00;99.90;;;;;;4958663;28;20504;-63
2023/04/22 05:50:31;;;;;;;2.47;1.73;;;11.00;99.90;;;;;;4975492;28;20192;-63
2023/04/22 05:52:56;;;;;;;2.67;2.47;;;11.10;99.90;;;;;;4975631;28;20240;-64
2023/04/22 05:55:22;;;;;;;1.60;1.50;;;11.20;99.90;;;;;;4958321;28;20204;-63
2023/04/22 05:57:47;;;;;;;1.90;1.80;;;11.30;99.90;;;;;;4975814;28;20604;-63
2023/04/22 06:00:14;;;;;;;2.43;2.23;;;11.40;99.90;;;;;;4964648;28;20257;-64
2023/04/22 06:02:39;;;;;;;2.90;2.17;;;11.50;99.90;;;;;;4956306;29;20217;-64
2023/04/22 06:05:05;;;;;;;1.73;1.63;;;11.60;99.90;;;;;;4938647;29;20499;-62
2023/04/22 06:07:31;;;;;;;2.03;1.93;;;11.80;99.90;;;;;;4955466;29;20206;-61
2023/04/22 06:09:56;;;;;;;2.20;2.00;;;12.00;99.90;;;;;;4956143;29;20905;-63
2023/04/22 06:12:22;;;;;;;2.00;1.90;;;12.10;99.90;;;;;;4956287;29;20182;-62
2023/04/22 06:14:47;;;;;;;2.30;1.90;;;12.30;99.90;;;;;;4955733;28;20597;-63
2023/04/22 06:17:13;;;;;;;2.13;1.40;;;12.60;99.90;;;;;;4955643;29;20259;-63
2023/04/22 06:19:39;;;;;;;1.60;1.50;;;12.90;99.90;;;;;;4955704;29;20231;-65
2023/04/22 06:22:04;;;;;;;2.07;1.97;;;13.10;99.90;;;;;;4955848;29;20262;-64
2023/04/22 06:24:30;;;;;;;2.17;1.87;;;13.30;99.90;;;;;;4955626;28;20207;-70
2023/04/22 06:26:56;;;;;;;2.33;2.20;;;13.50;99.90;;;;;;4955407;29;20217;-70
2023/04/22 06:29:22;;;;;;;1.80;1.70;;;13.70;99.90;;;;;;4955883;29;20180;-66
2023/04/22 06:31:48;;;;;;;1.53;1.43;;;14.00;99.90;;;;;;4956047;29;20379;-69
2023/04/22 06:34:13;;;;;;;2.40;1.93;;;14.30;99.90;;;;;;4955265;28;20196;-63
2023/04/22 06:36:39;;;;;;;1.90;1.80;;;14.40;99.90;;;;;;4955893;29;20208;-73
2023/04/22 06:39:05;;;;;;;2.23;2.03;;;14.50;99.90;;;;;;4955732;29;20169;-67
2023/04/22 06:41:32;;;;;;;3.00;2.77;;;14.60;99.90;;;;;;4955794;29;20262;-69
2023/04/22 06:43:57;;;;;;;2.17;2.03;;;14.70;99.90;;;;;;4955237;28;20173;-68
2023/04/22 06:46:23;;;;;;;3.07;2.87;;;14.80;99.90;;;;;;4955680;29;20388;-69
2023/04/22 06:48:49;;;;;;;3.67;2.20;;;14.80;99.90;;;;;;4955517;29;20204;-69
2023/04/22 06:51:14;;;;;;;3.03;2.60;;;15.00;99.90;;;;;;4955447;29;20224;-68
2023/04/22 06:53:40;;;;;;;2.97;2.77;;;15.10;99.90;;;;;;4955158;29;20285;-68
2023/04/22 06:56:06;;;;;;;3.43;3.23;;;15.20;99.90;;;;;;4954653;28;20197;-69
2023/04/22 06:58:31;;;;;;;2.80;2.60;;;15.30;99.90;;;;;;4955367;29;20222;-67
2023/04/22 07:00:57;;;;;;;2.37;2.17;;;15.50;99.90;;;;;;4954830;28;20178;-68
2023/04/22 07:03:23;;;;;;;1.60;1.50;;;15.60;99.90;;;;;;4974239;28;20559;-68
2023/04/22 07:05:48;;;;;;;1.97;1.80;;;15.70;99.90;;;;;;4955317;28;20201;-66
2023/04/22 07:08:14;;;;;;;2.40;2.27;;;15.80;99.90;;;;;;4955815;29;20169;-67
2023/04/22 07:10:40;;;;;;;3.40;2.80;;;15.90;99.90;;;;;;4954737;29;20180;-69
2023/04/22 07:13:05;;;;;;;3.13;2.23;;;16.00;99.90;;;;;;4953695;29;20173;-68
2023/04/22 07:15:31;;;;;;;2.40;2.20;;;16.10;99.90;;;;;;4954243;28;20190;-67
2023/04/22 07:17:56;;;;;;;2.70;2.50;;;16.20;99.90;;;;;;4953336;28;20196;-69
2023/04/22 07:20:22;;;;;;;2.70;2.13;;;16.40;99.90;;;;;;4958675;28;20229;-68
2023/04/22 07:22:48;;;;;;;2.57;2.30;;;16.70;99.90;;;;;;4962762;28;20243;-67
2023/04/22 07:25:13;;;;;;;3.17;2.63;;;17.00;99.90;;;;;;4955491;28;20198;-68
2023/04/22 07:27:39;;;;;;;2.20;2.10;;;17.40;99.90;;;;;;4960216;28;20211;-69
2023/04/22 07:30:07;;;;;;;2.30;2.10;;;17.70;99.90;;;;;;4925704;29;20189;-68
2023/04/22 07:32:32;;;;;;;2.77;2.57;;;17.90;99.90;;;;;;4943348;28;20185;-68
2023/04/22 07:34:58;;;;;;;2.20;2.00;;;18.00;99.90;;;;;;4929626;29;20539;-68
2023/04/22 07:37:23;;;;;;;2.67;2.47;;;18.20;99.90;;;;;;4945569;28;20538;-70
2023/04/22 07:39:49;;;;;;;5.30;3.00;;;18.30;99.90;;;;;;4945774;28;20179;-65
2023/04/22 07:42:15;;;;;;;2.37;2.20;;;18.40;99.90;;;;;;4952439;29;20241;-70
2023/04/22 07:44:41;;;;;;;2.60;2.40;;;18.50;99.90;;;;;;4959076;28;20702;-67
2023/04/22 07:47:07;;;;;;;1.80;1.70;;;18.50;99.80;;;;;;4973123;28;20412;-67
2023/04/22 07:49:33;;;;;;;2.17;1.93;;;18.80;99.90;;;;;;4973181;28;20182;-66
2023/04/22 07:51:58;;;;;;;2.90;2.70;;;19.20;99.20;;;;;;4956537;28;20751;-70
2023/04/22 07:54:24;;;;;;;1.87;1.77;;;19.60;98.40;;;;;;4955923;28;20448;-67
2023/04/22 07:56:50;;;;;;;2.00;1.87;;;19.80;97.20;;;;;;4971702;28;20201;-68
2023/04/22 07:59:15;;;;;;;1.80;1.57;;;20.10;97.00;;;;;;4971793;28;20176;-70
2023/04/22 08:01:41;;;;;;;1.10;1.10;;;20.60;96.20;;;;;;4971919;28;20259;-68
2023/04/22 08:04:07;;;;;;;1.50;1.40;;;21.20;95.40;;;;;;4970233;28;20276;-69
2023/04/22 08:06:33;;;;;;;1.30;1.20;;;21.40;93.80;;;;;;4954460;28;20203;-68
2023/04/22 08:08:58;;;;;;;1.57;1.47;;;21.50;93.10;;;;;;4969223;28;20187;-69
2023/04/22 08:11:24;;;;;;;1.90;1.80;;;21.50;93.20;;;;;;4977588;28;20530;-69
2023/04/22 08:13:49;;;;;;;1.53;1.43;;;21.70;93.30;;;;;;4955394;28;20271;-71
2023/04/22 08:16:15;;;;;;;1.37;1.27;;;21.70;93.90;;;;;;4977282;28;20236;-67
2023/04/22 08:18:41;;;;;;;1.47;1.30;;;21.60;92.90;;;;;;4959110;28;20785;-68
2023/04/22 08:21:06;;;;;;;1.33;1.20;;;21.60;93.60;;;;;;4976908;28;20248;-70
2023/04/22 08:23:32;;;;;;;1.17;1.07;;;21.80;92.40;;;;;;4969626;28;20180;-67
2023/04/22 08:25:58;;;;;;;1.97;1.87;;;22.10;92.00;;;;;;4957631;29;20667;-69
2023/04/22 08:28:23;;;;;;;1.60;1.60;;;22.30;91.20;;;;;;4957979;29;20695;-67
2023/04/22 08:30:49;;;;;;;1.57;1.47;;;22.50;90.70;;;;;;4957877;29;20690;-69
2023/04/22 08:33:15;;;;;;;1.33;1.20;;;22.70;88.90;;;;;;4961532;28;20176;-69
2023/04/22 08:35:41;;;;;;;1.03;1.03;;;22.50;86.90;;;;;;4971083;28;20208;-69
2023/04/22 08:38:06;;;;;;;1.30;1.30;;;22.40;86.50;;;;;;4950397;28;20460;-70
2023/04/22 08:40:34;;;;;;;1.33;1.33;;;22.30;86.80;;;;;;4957824;29;20180;-70
2023/04/22 08:42:59;;;;;;;1.80;1.70;;;22.20;87.60;;;;;;4958848;28;20526;-68
2023/04/22 08:45:25;;;;;;;1.30;1.20;;;22.20;86.90;;;;;;4959810;28;20518;-70
2023/04/22 08:47:52;;;;;;;1.20;1.20;;;22.20;87.60;;;;;;4969887;28;20208;-67
2023/04/22 08:50:21;;;;;;;1.27;1.27;;;22.40;87.90;;;;;;4960362;28;20188;-69
2023/04/22 08:52:46;;;;;;;1.33;1.20;;;22.80;85.30;;;;;;4961473;28;20394;-66
2023/04/22 08:55:12;;;;;;;1.23;1.20;;;23.30;84.90;;;;;;4957168;28;20810;-67
2023/04/22 08:57:38;;;;;;;1.03;1.03;;;24.20;82.40;;;;;;4957758;29;20197;-66
2023/04/22 09:00:05;;;;;;;2.00;1.47;;;25.10;78.90;;;;;;4957287;29;20173;-68
2023/04/22 09:02:32;;;;;;;1.00;1.00;;;25.80;77.60;;;;;;4957529;29;20395;-69
2023/04/22 09:05:02;;;;;;;1.57;1.47;;;26.60;73.20;;;;;;4955916;29;20510;-66
2023/04/22 09:07:29;;;;;;;1.43;1.33;;;27.50;71.60;;;;;;4955770;29;20444;-67
2023/04/22 09:09:56;;;;;;;1.47;1.37;;;28.10;71.10;;;;;;4938881;29;20430;-67
2023/04/22 09:12:23;;;;;;;2.00;1.90;;;28.90;68.30;;;;;;4956059;29;20731;-67
2023/04/22 09:14:49;;;;;;;1.50;1.40;;;29.50;65.50;;;;;;4962805;28;20427;-69
2023/04/22 09:17:16;;;;;;;1.63;1.53;;;29.90;63.90;;;;;;4955829;29;20827;-68
2023/04/22 09:19:41;;;;;;;2.00;1.90;;;30.60;61.60;;;;;;4955639;28;20188;-68
2023/04/22 09:22:14;;;;;;;2.03;1.73;;;31.30;58.70;;;;;;4957159;29;20408;-69
2023/04/22 09:24:50;;;;;;;1.40;1.30;;;31.80;57.20;;;;;;4963718;28;20782;-69
2023/04/22 09:27:17;;;;;;;1.70;1.60;;;32.10;56.60;;;;;;4976303;28;20446;-69
2023/04/22 09:29:50;;;;;;;1.60;1.50;;;32.10;56.40;;;;;;4959434;28;20408;-68
2023/04/22 09:32:16;;;;;;;1.20;1.20;;;31.70;55.80;;;;;;4976284;28;20408;-70
2023/04/22 09:34:52;;;;;;;1.63;1.53;;;31.70;55.80;;;;;;4968083;28;20455;-70
2023/04/22 09:37:24;;;;;;;1.57;1.50;;;31.80;55.20;;;;;;4956636;29;20527;-70
2023/04/22 09:39:51;;;;;;;1.73;1.63;;;31.60;55.20;;;;;;4956861;29;20415;-71
2023/04/22 09:42:17;;;;;;;1.67;1.43;;;31.20;55.00;;;;;;4939600;29;20475;-69
2023/04/22 09:44:45;;;;;;;1.70;1.60;;;30.40;56.00;;;;;;4956065;28;20467;-70
2023/04/22 09:47:12;;;;;;;1.30;1.30;;;29.60;57.10;;;;;;4954459;29;20429;-71
2023/04/22 09:49:37;;;;;;;1.13;1.13;;;29.00;58.10;;;;;;4954608;29;20798;-68
2023/04/22 09:52:04;;;;;;;2.20;1.50;;;28.70;58.50;;;;;;4954349;29;20528;-69
2023/04/22 09:54:30;;;;;;;1.43;1.20;;;28.80;57.70;;;;;;4958414;28;20606;-68
2023/04/22 09:56:55;;;;;;;1.37;1.27;;;28.80;58.30;;;;;;4973685;28;20441;-70
2023/04/22 09:59:23;;;;;;;1.30;1.20;;;29.00;57.70;;;;;;4974245;28;20176;-68
2023/04/22 10:01:52;;;;;;;0.90;0.90;;;29.40;57.10;;;;;;4975600;28;20599;-68
2023/04/22 10:04:20;;;;;;;1.70;1.60;;;29.80;57.10;;;;;;4972137;28;20425;-68
2023/04/22 10:06:49;;;;;;;1.20;1.20;;;30.40;55.20;;;;;;4956068;29;20469;-68
2023/04/22 10:09:18;;;;;;;3.23;1.50;;;30.90;55.60;;;;;;4949785;28;20466;-68
2023/04/22 10:11:43;;;;;;;1.13;1.10;;;31.60;54.90;;;;;;4974531;28;20412;-68
2023/04/22 10:14:10;;;;;;;1.13;1.10;;;32.40;53.90;;;;;;4973418;28;20436;-68
2023/04/22 10:16:38;;;;;;;1.20;1.20;;;32.40;52.00;;;;;;4938322;29;20203;-67
2023/04/22 10:19:06;;;;;;;1.20;1.17;;;32.70;51.10;;;;;;4956184;29;20409;-68
2023/04/22 10:21:33;;;;;;;1.00;0.90;;;32.80;51.00;;;;;;4955753;29;20412;-67
2023/04/22 10:23:59;;;;;;;1.10;1.10;;;32.70;51.90;;;;;;4954989;29;20440;-70
2023/04/22 10:26:58;;;;;;;0.97;0.97;;;32.60;50.60;;;;;;4955823;29;20412;-68
2023/04/22 10:29:26;;;;;;;1.00;1.00;;;32.60;50.30;;;;;;4923886;29;20462;-68
2023/04/22 10:32:04;;;;;;;1.20;1.20;;;32.60;50.00;;;;;;4955216;29;20413;-69
2023/04/22 10:34:33;;;;;;;1.10;1.10;;;32.70;52.20;;;;;;4955142;29;20448;-67
2023/04/22 10:37:08;;;;;;;1.17;1.17;;;32.80;51.20;;;;;;4955668;29;20455;-68
2023/04/22 10:39:34;;;;;;;1.70;1.23;;;32.70;49.80;;;;;;4955610;29;20836;-68
2023/04/22 10:42:02;;;;;;;1.73;1.30;;;32.60;49.90;;;;;;4955778;29;20875;-67
2023/04/22 10:44:44;;;;;;;1.40;1.30;;;32.40;49.60;;;;;;4970517;28;20534;-69
2023/04/22 10:47:09;;;;;;;1.43;1.33;;;32.00;50.50;;;;;;4974911;28;20526;-68
2023/04/22 10:49:35;;;;;;;1.40;1.30;;;31.80;51.00;;;;;;4975052;28;20423;-68
2023/04/22 10:52:02;;;;;;;1.13;1.10;;;31.90;50.90;;;;;;4974977;28;20175;-69
2023/04/22 10:54:35;;;;;;;1.40;1.27;;;31.60;51.70;;;;;;4958573;28;20225;-68
2023/04/22 10:57:13;;;;;;;1.90;1.70;;;31.50;50.80;;;;;;4955587;29;20969;-68
2023/04/22 10:59:46;;;;;;;1.43;1.37;;;31.80;50.10;;;;;;4938776;29;20823;-69
2023/04/22 11:02:15;;;;;;;1.63;1.30;;;31.50;49.70;;;;;;4969553;28;20468;-68
2023/04/22 11:04:41;;;;;;;6.10;1.73;;;31.40;49.20;;;;;;4935745;29;20441;-68
2023/04/22 11:07:21;;;;;;;1.37;1.27;;;31.10;50.80;;;;;;4936014;29;20429;-68
2023/04/22 11:09:49;;;;;;;1.20;1.20;;;31.00;50.70;;;;;;4936466;29;20380;-67
2023/04/22 11:12:34;;;;;;;2.23;2.13;;;30.70;50.70;;;;;;4965833;28;20427;-68
2023/04/22 11:15:11;;;;;;;1.53;1.43;;;30.20;52.20;;;;;;4974113;28;20458;-68
2023/04/22 11:17:39;;;;;;;1.40;1.30;;;29.50;50.20;;;;;;4974377;28;20447;-68
2023/04/22 11:20:06;;;;;;;1.40;1.30;;;29.00;50.20;;;;;;4974366;28;20405;-68
2023/04/22 11:22:40;;;;;;;1.20;1.10;;;28.50;49.60;;;;;;4957405;28;20430;-68
2023/04/22 11:25:08;;;;;;;1.07;1.07;;;28.10;51.30;;;;;;4954486;29;20447;-69
2023/04/22 11:27:33;;;;;;;1.60;1.33;;;27.70;52.00;;;;;;4955135;29;20481;-68
2023/04/22 11:30:11;;;;;;;1.10;1.00;;;27.50;52.80;;;;;;4955081;29;20504;-67
2023/04/22 11:32:40;;;;;;;1.20;1.10;;;27.20;51.20;;;;;;4937778;29;20188;-66
2023/04/22 11:35:08;;;;;;;0.90;0.90;;;27.00;50.10;;;;;;4954653;29;20431;-68
2023/04/22 11:37:51;;;;;;;1.30;1.20;;;26.40;52.20;;;;;;4955106;29;20455;-67
2023/04/22 11:40:19;;;;;;;1.23;1.10;;;26.00;53.30;;;;;;4955236;29;20411;-68
2023/04/22 11:42:45;;;;;;;0.90;0.90;;;25.70;55.80;;;;;;4974620;28;20487;-67
2023/04/22 11:45:12;;;;;;;0.93;0.93;;;25.50;53.30;;;;;;4977929;28;20428;-67
2023/04/22 11:47:39;;;;;;;0.90;0.90;;;25.50;52.90;;;;;;4978169;28;20473;-66
2023/04/22 11:50:08;;;;;;;0.90;0.90;;;25.50;53.70;;;;;;4978071;28;20515;-67
2023/04/22 11:52:53;;;;;;;1.17;1.07;;;25.50;54.50;;;;;;4962061;28;20459;-67
2023/04/22 11:55:39;;;;;;;1.67;1.27;;;25.40;53.80;;;;;;4958407;29;20926;-67
2023/04/22 11:58:10;;;;;;;1.00;0.90;;;25.20;55.40;;;;;;4899358;29;20467;-66
2023/04/22 12:00:39;;;;;;;1.03;1.03;;;25.20;54.80;;;;;;4899135;29;20509;-67
2023/04/22 12:03:13;;;;;;;1.03;1.03;;;25.20;56.00;;;;;;4918029;29;20896;-67
2023/04/22 12:05:45;;;;;;;1.20;1.10;;;25.30;56.00;;;;;;4918096;29;20453;-67
2023/04/22 12:08:13;;;;;;;1.10;1.10;;;25.30;57.80;;;;;;4918208;29;20425;-67
2023/04/22 12:10:44;;;;;;;1.37;1.27;;;25.40;57.00;;;;;;4918086;29;20393;-67
2023/04/22 12:13:32;;;;;;;1.17;1.17;;;25.40;57.60;;;;;;4903181;29;20433;-67
2023/04/22 12:16:06;;;;;;;1.20;1.10;;;25.50;55.70;;;;;;4899195;29;20454;-66
2023/04/22 12:18:36;;;;;;;1.37;1.30;;;25.50;56.20;;;;;;4900159;29;20480;-66
2023/04/22 12:21:08;;;;;;;1.10;1.00;;;25.60;56.70;;;;;;4899336;29;20432;-67
2023/04/22 12:23:51;;;;;;;1.00;1.00;;;25.70;56.80;;;;;;4906203;29;20448;-67
2023/04/22 12:26:19;;;;;;;1.20;1.20;;;25.90;56.80;;;;;;4918212;29;20450;-67
2023/04/22 12:28:46;;;;;;;1.97;1.27;;;25.90;56.10;;;;;;4908542;29;20970;-67
2023/04/22 12:31:13;;;;;;;1.63;1.37;;;25.90;55.00;;;;;;4899127;29;20421;-67
2023/04/22 12:33:39;;;;;;;1.30;1.30;;;25.70;54.90;;;;;;4898497;29;20430;-66
2023/04/22 12:36:05;;;;;;;1.20;1.20;;;25.50;56.30;;;;;;4950698;29;20895;-66
2023/04/22 12:38:31;;;;;;;1.37;1.07;;;25.30;56.20;;;;;;4958411;28;20178;-67
2023/04/22 12:40:58;;;;;;;3.80;1.00;;;25.20;56.80;;;;;;4958146;29;20913;-67
2023/04/22 12:43:23;;;;;;;1.10;1.10;;;25.20;56.70;;;;;;4957516;29;20180;-68
2023/04/22 12:45:49;;;;;;;1.50;1.40;;;25.00;57.10;;;;;;4957968;29;20527;-67
2023/04/22 12:48:15;;;;;;;1.10;1.10;;;24.80;56.90;;;;;;4957647;29;20185;-66
2023/04/22 12:50:41;;;;;;;1.33;1.30;;;24.60;57.20;;;;;;4957993;29;20466;-66
2023/04/22 12:53:06;;;;;;;1.27;1.27;;;24.40;58.20;;;;;;4956448;28;20213;-68
2023/04/22 12:55:33;;;;;;;1.40;1.33;;;24.50;59.70;;;;;;4958039;29;20193;-67
2023/04/22 12:57:58;;;;;;;1.50;1.40;;;24.60;60.00;;;;;;4957351;29;20212;-67
2023/04/22 13:00:24;;;;;;;1.27;1.20;;;24.80;60.60;;;;;;4957416;29;20471;-68
2023/04/22 13:02:50;;;;;;;1.37;1.30;;;25.00;59.90;;;;;;4957559;29;20185;-67
2023/04/22 13:05:17;;;;;;;0.80;0.80;;;25.20;59.00;;;;;;4956498;29;20201;-68
2023/04/22 13:07:43;;;;;;;1.60;1.23;;;25.40;57.90;;;;;;4959614;28;20213;-68
2023/04/22 13:10:11;;;;;;;1.37;1.37;;;25.50;58.30;;;;;;4977105;28;20395;-67
2023/04/22 13:12:38;;;;;;;1.73;1.63;;;25.50;57.80;;;;;;4976565;28;20422;-67
2023/04/22 13:15:05;;;;;;;1.30;1.20;;;25.50;58.20;;;;;;4964212;28;20478;-68
2023/04/22 13:17:30;;;;;;;1.40;1.30;;;25.40;58.40;;;;;;4956653;28;20982;-67
2023/04/22 13:19:56;;;;;;;1.27;1.17;;;25.50;58.40;;;;;;4964726;28;20429;-68
2023/04/22 13:22:21;;;;;;;1.50;1.40;;;25.60;57.30;;;;;;4956791;28;20587;-67
2023/04/22 13:24:47;;;;;;;1.23;1.10;;;25.60;57.40;;;;;;4956609;29;20285;-68
2023/04/22 13:27:13;;;;;;;1.20;1.10;;;25.60;57.00;;;;;;4956915;29;20175;-69
2023/04/22 13:29:39;;;;;;;1.47;1.37;;;25.50;57.60;;;;;;4946904;28;20425;-68
2023/04/22 13:32:05;;;;;;;1.23;1.13;;;25.40;58.40;;;;;;4961114;28;20277;-68
2023/04/22 13:34:31;;;;;;;2.60;1.27;;;25.40;58.00;;;;;;4956474;28;20415;-67
2023/04/22 13:36:57;;;;;;;1.37;1.27;;;25.20;56.20;;;;;;4956990;29;20779;-68
2023/04/22 13:39:23;;;;;;;2.63;1.47;;;24.90;56.60;;;;;;4960956;28;20177;-68
2023/04/22 13:41:49;;;;;;;1.50;1.40;;;24.70;58.10;;;;;;4976102;28;20179;-68
2023/04/22 13:44:15;;;;;;;1.20;1.10;;;24.60;58.80;;;;;;4975604;28;20432;-67
2023/04/22 13:46:41;;;;;;;1.17;1.07;;;24.60;58.90;;;;;;4966722;28;20535;-68
2023/04/22 13:49:07;;;;;;;1.30;1.20;;;24.70;59.00;;;;;;4958900;28;20181;-69
2023/04/22 13:51:33;;;;;;;1.40;1.30;;;24.70;59.20;;;;;;4976023;28;20458;-68
2023/04/22 13:54:00;;;;;;;1.70;1.60;;;24.70;59.30;;;;;;4975714;28;20498;-67
2023/04/22 13:56:26;;;;;;;1.83;1.70;;;24.60;62.00;;;;;;4956681;28;20203;-68
2023/04/22 13:58:52;;;;;;;1.70;1.60;;;24.40;67.90;;;;;;4956238;29;20486;-69
2023/04/22 14:01:18;;;;;;;1.30;1.20;;;24.30;69.70;;;;;;4956385;29;20458;-67
2023/04/22 14:03:44;;;;;;;1.83;1.17;;;24.20;71.20;;;;;;4954963;28;20395;-68
2023/04/22 14:06:10;;;;;;;1.57;1.33;;;24.20;72.50;;;;;;4958100;28;20193;-68
2023/04/22 14:08:36;;;;;;;2.10;1.43;;;24.20;72.60;;;;;;4959212;28;20905;-68
2023/04/22 14:11:02;;;;;;;1.50;1.40;;;24.10;73.40;;;;;;4955939;29;20173;-68
2023/04/22 14:13:29;;;;;;;1.10;1.10;;;24.00;72.90;;;;;;4938604;29;20394;-68
2023/04/22 14:15:55;;;;;;;1.90;1.80;;;24.00;73.40;;;;;;4955330;28;21022;-67
2023/04/22 14:18:22;;;;;;;2.37;1.50;;;24.10;74.10;;;;;;4963587;28;20533;-67
2023/04/22 14:20:48;;;;;;;1.83;1.43;;;24.10;73.40;;;;;;4955416;29;20213;-68
2023/04/22 14:23:13;;;;;;;1.60;1.50;;;24.00;72.80;;;;;;4955704;29;20406;-68
2023/04/22 14:25:39;;;;;;;1.83;1.73;;;24.00;71.50;;;;;;4955889;28;20418;-69
2023/04/22 14:28:05;;;;;;;1.77;1.67;;;23.90;70.30;;;;;;4959434;28;20177;-67
2023/04/22 14:30:31;;;;;;;1.73;1.23;;;23.80;69.80;;;;;;4955168;29;20243;-68
2023/04/22 14:32:57;;;;;;;1.33;1.23;;;23.70;70.50;;;;;;4954835;29;20200;-69
2023/04/22 14:35:22;;;;;;;1.27;1.27;;;23.60;71.40;;;;;;4955394;29;20284;-68
2023/04/22 14:37:48;;;;;;;1.40;1.30;;;23.60;71.70;;;;;;4967244;28;20433;-68
2023/04/22 14:40:14;;;;;;;1.80;1.70;;;23.50;72.40;;;;;;4955877;29;20177;-68
2023/04/22 14:42:40;;;;;;;1.27;1.27;;;23.40;71.80;;;;;;4955555;29;20639;-67
2023/04/22 14:45:06;;;;;;;1.53;1.43;;;23.50;71.40;;;;;;4955318;28;20626;-67
2023/04/22 14:47:31;;;;;;;1.00;1.00;;;23.60;71.40;;;;;;4966757;28;20188;-69
2023/04/22 14:49:57;;;;;;;1.57;1.17;;;23.60;71.80;;;;;;4975112;28;20410;-68
2023/04/22 14:52:23;;;;;;;1.57;1.47;;;23.70;71.20;;;;;;4961349;28;20244;-69
2023/04/22 14:54:48;;;;;;;1.90;1.80;;;23.70;70.70;;;;;;4954328;28;20205;-67
2023/04/22 14:57:14;;;;;;;1.40;1.40;;;23.70;70.70;;;;;;4964312;28;20204;-67
2023/04/22 14:59:40;;;;;;;1.50;1.40;;;23.60;71.30;;;;;;4970007;28;20177;-67
2023/04/22 15:02:14;;;;;;;1.60;1.50;;;23.60;71.00;;;;;;4955320;29;20372;-67
2023/04/22 15:04:40;;;;;;;1.40;1.30;;;23.50;69.10;;;;;;4954547;28;20484;-68
2023/04/22 15:07:06;;;;;;;1.50;1.40;;;23.50;69.50;;;;;;4958909;28;20490;-68
2023/04/22 15:09:32;;;;;;;1.80;1.70;;;23.50;69.60;;;;;;4957309;28;20896;-69
2023/04/22 15:11:58;;;;;;;3.00;1.90;;;23.50;68.80;;;;;;4974882;28;20191;-67
2023/04/22 15:14:24;;;;;;;1.83;1.73;;;23.40;69.20;;;;;;4974284;28;20204;-68
2023/04/22 15:16:49;;;;;;;1.67;1.57;;;23.50;69.40;;;;;;4968782;28;20463;-68
2023/04/22 15:19:15;;;;;;;1.40;1.30;;;23.50;69.80;;;;;;4954395;29;20181;-68
2023/04/22 15:21:41;;;;;;;0.90;0.90;;;23.50;70.00;;;;;;4954707;29;20208;-68
2023/04/22 15:24:06;;;;;;;1.23;1.13;;;23.50;70.20;;;;;;4954819;28;20559;-68
2023/04/22 15:26:32;;;;;;;1.73;1.60;;;23.40;69.40;;;;;;4974022;28;20198;-69
2023/04/22 15:28:59;;;;;;;1.60;1.20;;;23.30;68.80;;;;;;4974690;28;20563;-68
2023/04/22 15:31:25;;;;;;;1.10;1.10;;;23.30;68.50;;;;;;4974521;28;20902;-68
2023/04/22 15:33:51;;;;;;;1.43;1.30;;;23.20;68.50;;;;;;4974161;28;20482;-68
2023/04/22 15:36:19;;;;;;;1.47;1.37;;;23.20;68.70;;;;;;4957502;28;20441;-68
2023/04/22 15:38:45;;;;;;;1.50;1.37;;;23.10;69.60;;;;;;4955093;29;20177;-67
2023/04/22 15:41:11;;;;;;;1.17;1.17;;;23.10;70.20;;;;;;4955027;29;20413;-67
2023/04/22 15:43:37;;;;;;;1.33;1.23;;;23.00;69.40;;;;;;4954836;29;20412;-68
2023/04/22 15:46:02;;;;;;;1.40;1.30;;;23.00;70.50;;;;;;4968917;28;20201;-68
2023/04/22 15:48:28;;;;;;;0.97;0.97;;;23.00;71.00;;;;;;4974521;28;20217;-68
2023/04/22 15:50:54;;;;;;;1.00;1.00;;;22.90;70.50;;;;;;4974331;28;20187;-68
2023/04/22 15:53:19;;;;;;;1.03;1.03;;;23.00;70.20;;;;;;4974010;28;20188;-68
2023/04/22 15:55:45;;;;;;;0.90;0.90;;;23.00;70.20;;;;;;4944962;28;20205;-67
2023/04/22 15:58:10;;;;;;;1.30;1.20;;;23.00;70.90;;;;;;4954782;29;20255;-69
2023/04/22 16:00:36;;;;;;;1.37;1.27;;;23.00;69.70;;;;;;4954770;29;20181;-68
2023/04/22 16:03:02;;;;;;;1.50;1.40;;;23.00;69.40;;;;;;4954683;29;20241;-69
2023/04/22 16:05:29;;;;;;;1.10;1.00;;;22.90;68.90;;;;;;4962552;28;20205;-67
2023/04/22 16:07:55;;;;;;;1.53;1.43;;;22.90;69.70;;;;;;4973633;28;20924;-68
2023/04/22 16:10:21;;;;;;;1.53;1.43;;;22.90;70.10;;;;;;4974138;28;20374;-68
2023/04/22 16:12:48;;;;;;;1.20;1.20;;;22.90;70.70;;;;;;4973523;28;20176;-68
2023/04/22 16:15:15;;;;;;;1.03;1.03;;;22.80;69.90;;;;;;4964906;28;20452;-68
2023/04/22 16:17:41;;;;;;;1.30;1.20;;;22.70;70.30;;;;;;4937977;28;21005;-70
2023/04/22 16:20:08;;;;;;;0.97;0.97;;;22.60;70.60;;;;;;4973141;28;20804;-70
2023/04/22 16:22:33;;;;;;;1.40;1.30;;;22.40;70.00;;;;;;4972658;28;20900;-69
2023/04/22 16:24:59;;;;;;;1.70;1.40;;;22.40;69.30;;;;;;4973091;28;20423;-70
2023/04/22 16:27:25;;;;;;;2.40;2.20;;;22.30;70.10;;;;;;4973426;28;20221;-66
2023/04/22 16:29:50;;;;;;;1.43;1.33;;;22.20;71.30;;;;;;4957661;28;20381;-67
2023/04/22 16:32:16;;;;;;;1.00;1.00;;;22.10;70.90;;;;;;4957850;29;20187;-68
2023/04/22 16:34:41;;;;;;;1.37;1.30;;;22.00;70.00;;;;;;4974170;28;20210;-66
2023/04/22 16:37:07;;;;;;;1.00;1.00;;;21.90;70.10;;;;;;4977351;28;20196;-69
2023/04/22 16:39:33;;;;;;;1.73;1.63;;;21.80;70.60;;;;;;4977397;28;20176;-67
2023/04/22 16:41:58;;;;;;;1.17;1.07;;;21.80;70.70;;;;;;4977218;28;20172;-68
2023/04/22 16:44:24;;;;;;;1.20;1.10;;;21.70;71.20;;;;;;4962713;28;20288;-67
2023/04/22 16:46:50;;;;;;;1.70;1.60;;;21.70;71.10;;;;;;4957362;29;20180;-66
2023/04/22 16:49:15;;;;;;;1.53;1.43;;;21.60;71.40;;;;;;4956885;29;20680;-67
2023/04/22 16:51:41;;;;;;;1.83;1.67;;;21.50;72.00;;;;;;4957941;29;20192;-66